createdAt,value
2018-11-27T00:00:18.972Z,46.42
2018-11-27T00:02:47.621Z,41.60
2018-11-27T00:05:16.298Z,42.05
2018-11-27T00:07:59.896Z,46.10
2018-11-27T00:10:29.610Z,41.50
2018-11-27T00:12:58.326Z,44.45
2018-11-27T00:15:26.992Z,43.20
2018-11-27T00:17:55.659Z,38.23
2018-11-27T00:20:24.331Z,38.65
2018-11-27T00:22:53.002Z,39.70
2018-11-27T00:25:21.665Z,43.65
2018-11-27T00:27:50.327Z,41.50
2018-11-27T00:30:20.086Z,40.00
2018-11-27T00:32:48.746Z,43.55
2018-11-27T00:35:18.647Z,44.90
2018-11-27T00:37:47.339Z,45.92
2018-11-27T00:40:17.728Z,46.60
2018-11-27T00:42:46.463Z,47.43
2018-11-27T00:45:16.097Z,47.10
2018-11-27T00:47:45.709Z,45.28
2018-11-27T00:50:16.353Z,48.17
2018-11-27T00:52:45.004Z,51.05
2018-11-27T00:55:14.659Z,48.45
2018-11-27T00:57:44.246Z,49.93
2018-11-27T01:00:17.886Z,48.20
2018-11-27T01:02:46.646Z,47.95
2018-11-27T01:05:16.417Z,50.48
2018-11-27T01:07:45.093Z,46.05
2018-11-27T01:10:15.773Z,48.33
2018-11-27T01:12:44.475Z,54.03
2018-11-27T01:15:13.742Z,51.00
2018-11-27T01:17:44.725Z,46.08
2018-11-27T01:20:15.341Z,49.42
2018-11-27T01:22:44.101Z,46.88
2018-11-27T01:25:12.892Z,44.60
2018-11-27T01:27:41.558Z,52.88
2018-11-27T01:30:13.136Z,48.95
2018-11-27T01:32:41.795Z,47.53
2018-11-27T01:35:11.512Z,46.50
2018-11-27T01:37:40.185Z,46.13
2018-11-27T01:40:10.758Z,45.12
2018-11-27T01:42:39.420Z,47.43
2018-11-27T01:45:09.892Z,46.55
2018-11-27T01:47:38.557Z,49.40
2018-11-27T01:50:11.312Z,50.20
2018-11-27T01:52:39.993Z,47.30
2018-11-27T01:55:12.751Z,48.50
2018-11-27T01:57:41.418Z,48.25
2018-11-27T02:00:21.590Z,50.52
2018-11-27T02:02:50.721Z,45.00
2018-11-27T02:05:19.433Z,44.95
2018-11-27T02:07:48.110Z,45.17
2018-11-27T02:10:16.786Z,51.37
2018-11-27T02:12:46.381Z,49.95
2018-11-27T02:15:17.321Z,47.35
2018-11-27T02:17:45.976Z,47.65
2018-11-27T02:20:14.625Z,49.58
2018-11-27T02:22:50.041Z,51.10
2018-11-27T02:25:20.864Z,52.33
2018-11-27T02:27:49.520Z,50.20
2018-11-27T02:30:19.628Z,48.78
2018-11-27T02:32:48.307Z,44.40
2018-11-27T02:35:20.797Z,50.98
2018-11-27T02:37:53.298Z,46.60
2018-11-27T02:40:21.989Z,43.70
2018-11-27T02:42:50.615Z,48.85
2018-11-27T02:45:20.254Z,48.20
2018-11-27T02:47:49.886Z,54.85
2018-11-27T02:50:19.459Z,47.35
2018-11-27T02:52:48.106Z,50.58
2018-11-27T02:55:19.893Z,52.70
2018-11-27T02:57:48.558Z,49.77
2018-11-27T03:00:18.217Z,47.38
2018-11-27T03:02:46.895Z,51.95
2018-11-27T03:05:17.026Z,51.83
2018-11-27T03:07:45.706Z,49.00
2018-11-27T03:10:15.098Z,52.53
2018-11-27T03:12:43.775Z,49.25
2018-11-27T03:15:14.428Z,50.30
2018-11-27T03:17:43.145Z,50.03
2018-11-27T03:20:12.827Z,52.75
2018-11-27T03:22:41.514Z,50.43
2018-11-27T03:25:11.414Z,52.17
2018-11-27T03:27:40.080Z,52.33
2018-11-27T03:30:13.201Z,54.53
2018-11-27T03:32:42.076Z,54.90
2018-11-27T03:35:12.805Z,52.53
2018-11-27T03:37:41.817Z,53.15
2018-11-27T03:40:12.962Z,53.17
2018-11-27T03:42:41.624Z,53.68
2018-11-27T03:45:11.546Z,50.33
2018-11-27T03:47:40.269Z,54.25
2018-11-27T03:50:12.305Z,50.33
2018-11-27T03:52:40.992Z,47.17
2018-11-27T03:55:10.486Z,53.02
2018-11-27T03:57:39.154Z,53.60
2018-11-27T04:00:13.874Z,55.98
2018-11-27T04:02:42.914Z,55.00
2018-11-27T04:05:12.098Z,48.40
2018-11-27T04:07:40.749Z,53.75
2018-11-27T04:10:11.198Z,51.42
2018-11-27T04:12:39.887Z,56.20
2018-11-27T04:15:08.786Z,52.23
2018-11-27T04:17:37.468Z,56.80
2018-11-27T04:20:07.483Z,53.50
2018-11-27T04:22:36.280Z,53.08
2018-11-27T04:25:06.745Z,58.05
2018-11-27T04:27:35.418Z,55.67
2018-11-27T04:30:04.974Z,56.35
2018-11-27T04:32:33.677Z,58.38
2018-11-27T04:35:02.326Z,59.13
2018-11-27T04:37:30.999Z,56.50
2018-11-27T04:39:59.638Z,55.90
2018-11-27T04:42:28.398Z,52.00
2018-11-27T04:44:57.045Z,55.75
2018-11-27T04:47:25.788Z,56.55
2018-11-27T04:49:54.445Z,58.68
2018-11-27T04:52:23.138Z,53.70
2018-11-27T04:54:51.810Z,59.33
2018-11-27T04:57:20.475Z,58.50
2018-11-27T04:59:49.137Z,58.25
2018-11-27T05:02:17.797Z,54.60
2018-11-27T05:04:46.464Z,60.38
2018-11-27T05:07:15.152Z,65.15
2018-11-27T05:09:44.415Z,58.15
2018-11-27T05:12:13.080Z,66.07
2018-11-27T05:14:41.777Z,55.88
2018-11-27T05:17:10.459Z,54.08
2018-11-27T05:19:39.111Z,45.98
2018-11-27T05:22:07.768Z,48.90
2018-11-27T05:24:36.430Z,46.42
2018-11-27T05:27:05.106Z,44.20
2018-11-27T05:29:33.763Z,42.23
2018-11-27T05:32:02.430Z,42.05
2018-11-27T05:34:31.131Z,42.38
2018-11-27T05:36:59.873Z,40.45
2018-11-27T05:39:28.551Z,38.80
2018-11-27T05:41:57.213Z,39.25
2018-11-27T05:44:25.914Z,35.58
2018-11-27T05:46:54.576Z,37.23
2018-11-27T05:49:23.244Z,35.80
2018-11-27T05:51:51.938Z,37.30
2018-11-27T05:54:20.605Z,39.23
2018-11-27T05:56:49.261Z,36.58
2018-11-27T05:59:17.934Z,41.63
2018-11-27T06:01:46.638Z,43.10
2018-11-27T06:04:15.303Z,41.53
2018-11-27T06:06:43.960Z,41.98
2018-11-27T06:09:12.635Z,41.00
2018-11-27T06:11:41.314Z,43.02
2018-11-27T06:14:10.068Z,42.17
2018-11-27T06:16:38.693Z,48.02
2018-11-27T06:19:07.361Z,47.15
2018-11-27T06:21:36.119Z,51.60
2018-11-27T06:24:05.246Z,52.55
2018-11-27T06:26:33.925Z,49.70
2018-11-27T06:29:02.618Z,56.20
2018-11-27T06:31:31.375Z,57.53
2018-11-27T06:34:00.061Z,54.88
2018-11-27T06:36:28.721Z,66.75
2018-11-27T06:38:57.416Z,72.62
2018-11-27T06:41:26.094Z,75.22
2018-11-27T06:43:54.773Z,67.53
2018-11-27T06:46:23.434Z,69.82
2018-11-27T06:48:52.121Z,69.60
2018-11-27T06:51:20.819Z,88.37
2018-11-27T06:53:49.485Z,85.53
2018-11-27T06:56:18.168Z,84.92
2018-11-27T06:58:46.832Z,95.17
2018-11-27T07:01:15.512Z,88.05
2018-11-27T07:03:44.184Z,111.35
2018-11-27T07:06:12.852Z,107.27
2018-11-27T07:08:41.617Z,128.38
2018-11-27T07:11:10.276Z,122.30
2018-11-27T07:13:38.940Z,90.35
2018-11-27T07:16:07.628Z,139.55
2018-11-27T07:18:36.306Z,140.37
2018-11-27T07:21:05.893Z,83.70
2018-11-27T07:23:34.549Z,72.95
2018-11-27T07:26:03.210Z,73.30
2018-11-27T07:28:31.873Z,73.20
2018-11-27T07:31:00.557Z,74.25
2018-11-27T07:33:29.216Z,70.03
2018-11-27T07:35:57.899Z,71.82
2018-11-27T07:38:26.604Z,72.27
2018-11-27T07:40:55.292Z,73.10
2018-11-27T07:43:23.956Z,69.42
2018-11-27T07:45:55.256Z,72.92
2018-11-27T07:48:21.306Z,73.60
2018-11-27T07:50:49.999Z,63.45
2018-11-27T07:53:18.687Z,67.62
2018-11-27T07:55:47.433Z,66.25
2018-11-27T07:58:16.096Z,61.45
2018-11-27T08:00:44.891Z,69.85
2018-11-27T08:03:13.452Z,54.88
2018-11-27T08:05:42.126Z,55.12
2018-11-27T08:08:13.030Z,48.65
2018-11-27T08:10:42.310Z,49.98
2018-11-27T08:13:11.082Z,44.58
2018-11-27T08:15:39.771Z,54.98
2018-11-27T08:18:09.394Z,50.17
2018-11-27T08:20:38.074Z,40.60
2018-11-27T08:23:07.996Z,44.83
2018-11-27T08:25:36.679Z,44.73
2018-11-27T08:28:06.471Z,38.92
2018-11-27T08:30:35.174Z,38.40
2018-11-27T08:33:03.856Z,38.20
2018-11-27T08:35:32.607Z,43.40
2018-11-27T08:38:01.717Z,35.28
2018-11-27T08:40:31.901Z,42.45
2018-11-27T08:43:00.644Z,38.92
2018-11-27T08:45:29.294Z,40.38
2018-11-27T08:47:57.956Z,43.20
2018-11-27T08:50:27.393Z,39.42
2018-11-27T08:53:03.086Z,55.00
2018-11-27T08:55:37.971Z,41.75
2018-11-27T08:58:15.229Z,41.85
2018-11-27T09:00:43.910Z,48.38
2018-11-27T09:03:12.563Z,49.15
2018-11-27T09:05:41.227Z,47.35
2018-11-27T09:08:09.889Z,44.25
2018-11-27T09:10:38.606Z,46.63
2018-11-27T09:13:07.322Z,50.73
2018-11-27T09:15:36.410Z,57.67
2018-11-27T09:18:20.180Z,60.83
2018-11-27T09:20:48.862Z,56.80
2018-11-27T09:23:17.535Z,57.88
2018-11-27T09:25:46.214Z,56.60
2018-11-27T09:28:14.872Z,53.05
2018-11-27T09:30:43.550Z,54.42
2018-11-27T09:33:12.200Z,54.90
2018-11-27T09:35:40.865Z,51.53
2018-11-27T09:38:09.509Z,56.23
2018-11-27T09:40:38.185Z,54.80
2018-11-27T09:43:07.117Z,57.85
2018-11-27T09:45:37.012Z,56.08
2018-11-27T09:48:05.753Z,58.20
2018-11-27T09:50:34.426Z,57.78
2018-11-27T09:53:03.118Z,59.93
2018-11-27T09:55:31.781Z,50.38
2018-11-27T09:58:00.456Z,57.20
2018-11-27T10:00:30.726Z,56.88
2018-11-27T10:03:15.876Z,55.92
2018-11-27T10:05:44.597Z,45.05
2018-11-27T10:08:13.258Z,45.98
2018-11-27T10:10:41.938Z,44.77
2018-11-27T10:13:10.599Z,53.68
2018-11-27T10:15:39.292Z,50.73
2018-11-27T10:18:08.022Z,48.85
2018-11-27T10:20:37.945Z,48.00
2018-11-27T10:23:10.098Z,43.92
2018-11-27T10:25:38.774Z,46.33
2018-11-27T10:28:07.526Z,49.93
2018-11-27T10:30:36.244Z,38.23
2018-11-27T10:33:10.163Z,36.95
2018-11-27T10:35:41.865Z,37.33
2018-11-27T10:38:10.524Z,35.48
2018-11-27T10:40:39.222Z,32.48
2018-11-27T10:43:07.898Z,36.30
2018-11-27T10:45:36.594Z,34.95
2018-11-27T10:48:05.298Z,35.08
2018-11-27T10:50:34.014Z,41.33
2018-11-27T10:53:02.704Z,37.30
2018-11-27T10:55:31.379Z,38.98
2018-11-27T10:58:00.065Z,42.25
2018-11-27T11:00:34.203Z,34.75
2018-11-27T11:03:08.192Z,41.90
2018-11-27T11:05:37.914Z,36.30
2018-11-27T11:08:06.583Z,36.25
2018-11-27T11:10:35.260Z,38.58
2018-11-27T11:13:03.926Z,36.30
2018-11-27T11:15:32.593Z,35.63
2018-11-27T11:18:01.347Z,38.83
2018-11-27T11:20:30.054Z,38.15
2018-11-27T11:22:58.735Z,38.55
2018-11-27T11:25:27.402Z,37.28
2018-11-27T11:27:57.359Z,32.10
2018-11-27T11:30:26.019Z,31.62
2018-11-27T11:32:54.694Z,28.17
2018-11-27T11:35:23.358Z,28.57
2018-11-27T11:37:52.016Z,26.50
2018-11-27T11:40:22.049Z,28.80
2018-11-27T11:42:55.889Z,27.98
2018-11-27T11:45:24.616Z,34.92
2018-11-27T11:47:53.319Z,33.78
2018-11-27T11:50:23.954Z,34.48
2018-11-27T11:52:57.128Z,34.63
2018-11-27T11:55:25.790Z,34.03
2018-11-27T11:57:54.489Z,32.23
2018-11-27T12:00:27.314Z,30.12
2018-11-27T12:02:56.064Z,33.65
2018-11-27T12:05:25.205Z,30.97
2018-11-27T12:07:53.393Z,29.18
2018-11-27T12:10:22.071Z,28.67
2018-11-27T12:12:50.743Z,30.92
2018-11-27T12:15:19.705Z,31.52
2018-11-27T12:17:48.729Z,31.73
2018-11-27T12:20:18.643Z,33.13
2018-11-27T12:22:48.661Z,34.48
2018-11-27T12:25:17.325Z,32.25
2018-11-27T12:27:45.986Z,33.23
2018-11-27T12:30:22.065Z,31.40
2018-11-27T12:32:50.858Z,33.33
2018-11-27T12:35:20.070Z,32.85
2018-11-27T12:37:48.757Z,31.05
2018-11-27T12:40:23.524Z,32.58
2018-11-27T12:42:52.579Z,35.23
2018-11-27T12:45:22.477Z,32.00
2018-11-27T12:47:51.486Z,36.03
2018-11-27T12:50:24.393Z,31.60
2018-11-27T12:52:53.066Z,34.90
2018-11-27T12:55:22.816Z,32.85
2018-11-27T12:57:51.509Z,35.38
2018-11-27T13:00:21.237Z,33.70
2018-11-27T13:02:50.042Z,35.17
2018-11-27T13:05:21.081Z,32.08
2018-11-27T13:07:50.710Z,35.48
2018-11-27T13:10:19.381Z,37.30
2018-11-27T13:12:48.043Z,33.48
2018-11-27T13:15:17.812Z,35.73
2018-11-27T13:17:47.177Z,33.53
2018-11-27T13:20:16.883Z,35.08
2018-11-27T13:22:45.678Z,36.10
2018-11-27T13:25:16.515Z,38.08
2018-11-27T13:27:45.180Z,39.05
2018-11-27T13:30:24.026Z,36.30
2018-11-27T13:32:57.505Z,38.25
2018-11-27T13:35:26.188Z,36.88
2018-11-27T13:37:54.874Z,38.30
2018-11-27T13:40:23.545Z,34.05
2018-11-27T13:42:52.423Z,36.55
2018-11-27T13:45:21.127Z,32.28
2018-11-27T13:47:49.796Z,36.90
2018-11-27T13:50:25.289Z,32.00
2018-11-27T13:52:53.968Z,34.98
2018-11-27T13:55:22.833Z,37.35
2018-11-27T13:57:51.513Z,35.68
2018-11-27T14:00:20.651Z,32.40
2018-11-27T14:02:51.731Z,33.75
2018-11-27T14:05:21.521Z,29.40
2018-11-27T14:07:50.266Z,27.35
2018-11-27T14:10:19.036Z,28.38
2018-11-27T14:12:47.717Z,30.35
2018-11-27T14:15:20.522Z,28.30
2018-11-27T14:17:49.677Z,28.98
2018-11-27T14:20:18.343Z,29.75
2018-11-27T14:22:47.867Z,30.75
2018-11-27T14:25:16.717Z,32.17
2018-11-27T14:27:45.875Z,33.85
2018-11-27T14:30:20.655Z,34.63
2018-11-27T14:32:49.657Z,33.40
2018-11-27T14:35:19.312Z,28.85
2018-11-27T14:37:50.113Z,32.58
2018-11-27T14:40:20.515Z,32.60
2018-11-27T14:42:49.219Z,34.35
2018-11-27T14:45:20.018Z,37.20
2018-11-27T14:47:49.765Z,31.65
2018-11-27T14:50:18.438Z,34.78
2018-11-27T14:52:47.084Z,32.05
2018-11-27T14:55:19.035Z,37.55
2018-11-27T14:57:47.814Z,36.28
2018-11-27T15:00:17.667Z,31.23
2018-11-27T15:02:46.320Z,33.63
2018-11-27T15:05:19.353Z,32.60
2018-11-27T15:07:48.028Z,32.63
2018-11-27T15:10:16.690Z,34.30
2018-11-27T15:12:46.028Z,35.52
2018-11-27T15:15:14.686Z,36.33
2018-11-27T15:17:43.363Z,37.48
2018-11-27T15:20:14.342Z,36.03
2018-11-27T15:22:43.042Z,37.15
2018-11-27T15:25:11.710Z,36.48
2018-11-27T15:27:40.388Z,36.90
2018-11-27T15:30:13.387Z,36.75
2018-11-27T15:32:42.174Z,37.83
2018-11-27T15:35:11.721Z,38.60
2018-11-27T15:37:40.425Z,39.92
2018-11-27T15:40:11.697Z,40.43
2018-11-27T15:42:40.380Z,42.23
2018-11-27T15:45:10.705Z,38.45
2018-11-27T15:47:39.378Z,37.85
2018-11-27T15:50:09.134Z,40.15
2018-11-27T15:52:37.829Z,40.73
2018-11-27T15:55:18.558Z,38.88
2018-11-27T15:57:48.479Z,41.15
2018-11-27T16:00:18.691Z,39.75
2018-11-27T16:02:47.387Z,38.88
2018-11-27T16:05:16.855Z,37.55
2018-11-27T16:07:45.573Z,42.80
2018-11-27T16:10:16.477Z,43.78
2018-11-27T16:12:45.161Z,43.40
2018-11-27T16:15:17.313Z,43.08
2018-11-27T16:17:45.904Z,40.78
2018-11-27T16:20:16.749Z,45.90
2018-11-27T16:22:47.514Z,38.05
2018-11-27T16:25:17.195Z,39.00
2018-11-27T16:27:46.086Z,36.08
2018-11-27T16:30:17.882Z,43.55
2018-11-27T16:32:46.551Z,42.38
2018-11-27T16:35:15.627Z,48.15
2018-11-27T16:37:45.493Z,50.35
2018-11-27T16:40:16.198Z,38.53
2018-11-27T16:42:44.861Z,37.35
2018-11-27T16:45:14.588Z,37.30
2018-11-27T16:47:43.588Z,33.48
2018-11-27T16:50:13.281Z,37.42
2018-11-27T16:52:42.008Z,35.78
2018-11-27T16:55:11.737Z,34.30
2018-11-27T16:57:40.418Z,34.67
2018-11-27T17:00:13.966Z,34.35
2018-11-27T17:02:42.671Z,34.75
2018-11-27T17:05:11.338Z,33.08
2018-11-27T17:07:40.118Z,34.50
2018-11-27T17:10:11.467Z,31.33
2018-11-27T17:12:40.153Z,29.60
2018-11-27T17:15:14.032Z,31.97
2018-11-27T17:17:42.706Z,31.40
2018-11-27T17:20:16.874Z,29.37
2018-11-27T17:22:45.558Z,29.07
2018-11-27T17:25:14.213Z,28.15
2018-11-27T17:27:43.018Z,26.35
2018-11-27T17:30:17.138Z,23.92
2018-11-27T17:32:46.403Z,28.62
2018-11-27T17:35:15.064Z,27.77
2018-11-27T18:03:17.197Z,33.73
2018-11-27T18:07:26.714Z,28.57
2018-11-27T18:26:18.959Z,81.83
2018-11-27T18:29:52.769Z,78.10
2018-11-27T20:10:46.835Z,25.13
2018-11-27T20:13:15.498Z,28.30
2018-11-27T20:15:44.182Z,29.83
2018-11-27T20:18:12.845Z,31.40
2018-11-27T20:20:41.512Z,29.35
2018-11-27T20:23:10.180Z,28.65
2018-11-27T20:25:38.853Z,31.45
2018-11-27T20:28:08.828Z,26.48
2018-11-27T20:30:39.196Z,31.05
2018-11-27T20:33:07.901Z,32.03
2018-11-27T20:35:36.583Z,31.45
2018-11-27T20:38:07.210Z,37.63
2018-11-27T20:40:35.918Z,35.17
2018-11-27T20:43:04.604Z,33.55
2018-11-27T20:45:33.290Z,28.30
2018-11-27T20:48:08.122Z,31.50
2018-11-27T20:50:36.853Z,32.33
2018-11-27T20:53:05.504Z,30.97
2018-11-27T20:55:34.377Z,28.55
2018-11-27T20:58:03.128Z,31.80
2018-11-27T21:00:35.613Z,30.88
2018-11-27T21:03:04.695Z,31.25
2018-11-27T21:05:33.379Z,31.85
2018-11-27T21:08:02.036Z,28.38
2018-11-27T21:10:30.712Z,28.80
2018-11-27T21:12:59.392Z,29.48
2018-11-27T21:15:28.057Z,28.12
2018-11-27T21:17:56.749Z,25.35
2018-11-27T21:20:25.445Z,30.65
2018-11-27T21:22:54.112Z,28.05
2018-11-27T21:25:25.376Z,28.02
2018-11-27T21:28:01.622Z,28.42
2018-11-27T21:30:30.289Z,28.20
2018-11-27T21:32:58.966Z,31.30
2018-11-27T21:35:27.636Z,30.52
2018-11-27T21:37:56.314Z,31.75
2018-11-27T21:40:24.977Z,29.87
2018-11-27T21:42:53.631Z,34.38
2018-11-27T21:45:25.341Z,33.13
2018-11-27T21:47:54.678Z,29.30
2018-11-27T21:50:28.914Z,24.10
2018-11-27T21:52:58.456Z,33.92
2018-11-27T21:55:27.138Z,28.57
2018-11-27T21:57:55.802Z,30.70
2018-11-27T22:00:25.416Z,29.35
2018-11-27T22:02:54.336Z,28.32
2018-11-27T22:05:23.014Z,29.48
2018-11-27T22:07:51.793Z,26.82
2018-11-27T22:10:21.795Z,31.37
2018-11-27T22:12:58.253Z,28.75
2018-11-27T22:15:29.638Z,23.12
2018-11-27T22:17:58.301Z,25.85
2018-11-27T22:20:26.980Z,31.02
2018-11-27T22:22:55.648Z,25.00
2018-11-27T22:25:24.347Z,32.88
2018-11-27T22:27:53.015Z,25.45
2018-11-27T22:30:21.837Z,33.08
2018-11-27T22:32:52.510Z,29.55
2018-11-27T22:35:21.310Z,27.50
2018-11-27T22:37:49.987Z,27.48
2018-11-27T22:40:21.065Z,27.80
2018-11-27T22:42:50.401Z,26.17
2018-11-27T22:45:21.419Z,27.00
2018-11-27T22:47:50.128Z,28.02
2018-11-27T22:50:19.174Z,26.95
2018-11-27T22:52:47.833Z,27.32
2018-11-27T22:55:16.529Z,25.23
2018-11-27T22:57:45.208Z,25.75
2018-11-27T23:00:27.467Z,26.25
2018-11-27T23:02:56.158Z,24.63
2018-11-27T23:05:24.847Z,24.23
2018-11-27T23:07:53.522Z,23.92
2018-11-27T23:10:22.238Z,26.97
2018-11-27T23:12:50.899Z,25.90
2018-11-27T23:15:20.616Z,25.10
2018-11-27T23:17:49.322Z,30.40
2018-11-27T23:20:18.920Z,29.27
2018-11-27T23:22:47.575Z,26.02
2018-11-27T23:25:17.172Z,25.32
2018-11-27T23:27:45.877Z,29.50
2018-11-27T23:30:16.703Z,25.30
2018-11-27T23:32:45.416Z,29.32
2018-11-27T23:35:14.107Z,27.60
2018-11-27T23:37:42.785Z,34.92
2018-11-27T23:40:12.550Z,29.40
2018-11-27T23:42:41.437Z,32.80
2018-11-27T23:45:12.102Z,26.17
2018-11-27T23:47:40.785Z,30.80
2018-11-27T23:50:10.598Z,28.57
2018-11-27T23:52:39.285Z,31.35
2018-11-27T23:55:08.987Z,36.42
2018-11-27T23:57:37.870Z,35.25
